createdAt,value
2019-03-25T00:01:05.405Z,3.67
2019-03-25T00:03:34.501Z,4.13
2019-03-25T00:06:03.565Z,4.00
2019-03-25T00:08:32.581Z,4.57
2019-03-25T00:11:01.615Z,3.83
2019-03-25T00:13:30.637Z,3.90
2019-03-25T00:15:59.739Z,4.13
2019-03-25T00:18:28.832Z,4.37
2019-03-25T00:20:57.889Z,4.73
2019-03-25T00:23:26.963Z,5.13
2019-03-25T00:25:55.982Z,4.23
2019-03-25T00:28:25.009Z,5.00
2019-03-25T00:30:55.138Z,4.80
2019-03-25T00:33:24.158Z,4.97
2019-03-25T00:35:53.212Z,4.70
2019-03-25T00:38:22.260Z,4.83
2019-03-25T00:40:51.336Z,4.33
2019-03-25T00:43:20.389Z,5.33
2019-03-25T00:45:49.438Z,4.60
2019-03-25T00:48:18.450Z,4.00
2019-03-25T00:50:47.457Z,4.67
2019-03-25T00:53:16.521Z,4.47
2019-03-25T00:55:45.562Z,4.37
2019-03-25T00:58:33.922Z,4.20
2019-03-25T01:01:02.950Z,4.70
2019-03-25T01:03:31.984Z,4.17
2019-03-25T01:06:01.017Z,4.50
2019-03-25T01:08:30.079Z,4.60
2019-03-25T01:10:59.125Z,4.87
2019-03-25T01:13:28.138Z,5.87
2019-03-25T01:15:57.170Z,4.27
2019-03-25T01:18:26.182Z,3.67
2019-03-25T01:20:55.285Z,4.90
2019-03-25T01:23:24.401Z,4.13
2019-03-25T01:25:53.453Z,4.10
2019-03-25T01:28:22.473Z,4.07
2019-03-25T01:30:51.500Z,4.10
2019-03-25T01:33:20.529Z,5.13
2019-03-25T01:35:49.552Z,4.10
2019-03-25T01:38:18.641Z,3.80
2019-03-25T01:40:47.576Z,4.03
2019-03-25T01:43:16.627Z,4.17
2019-03-25T01:45:45.740Z,4.47
2019-03-25T01:48:14.772Z,4.30
2019-03-25T01:50:43.783Z,4.13
2019-03-25T01:53:12.811Z,5.40
2019-03-25T01:55:41.849Z,4.73
2019-03-25T01:58:10.894Z,4.77
2019-03-25T02:00:40.097Z,4.40
2019-03-25T02:03:09.140Z,5.47
2019-03-25T02:05:38.168Z,4.43
2019-03-25T02:08:07.194Z,4.57
2019-03-25T02:10:36.250Z,4.47
2019-03-25T02:13:05.285Z,4.13
2019-03-25T02:15:34.333Z,5.37
2019-03-25T02:18:03.378Z,5.20
2019-03-25T02:20:32.426Z,5.67
2019-03-25T02:23:01.650Z,6.50
2019-03-25T02:25:30.681Z,5.23
2019-03-25T02:27:59.742Z,5.37
2019-03-25T02:30:28.824Z,6.23
2019-03-25T02:32:58.831Z,5.00
2019-03-25T02:35:27.886Z,4.73
2019-03-25T02:37:56.913Z,5.00
2019-03-25T02:40:25.957Z,5.23
2019-03-25T02:42:55.110Z,5.50
2019-03-25T02:45:43.514Z,4.97
2019-03-25T02:48:12.557Z,5.10
2019-03-25T02:50:41.585Z,4.73
2019-03-25T02:53:10.630Z,5.67
2019-03-25T02:55:41.975Z,4.67
2019-03-25T02:58:10.298Z,4.77
2019-03-25T03:00:39.510Z,4.60
2019-03-25T03:03:08.618Z,4.83
2019-03-25T03:05:37.712Z,4.97
2019-03-25T03:08:06.808Z,4.87
2019-03-25T03:10:35.966Z,4.03
2019-03-25T03:13:05.017Z,5.00
2019-03-25T03:15:34.036Z,5.20
2019-03-25T03:18:03.117Z,5.33
2019-03-25T03:20:32.125Z,5.07
2019-03-25T03:23:01.181Z,5.47
2019-03-25T03:25:30.225Z,5.80
2019-03-25T03:27:59.336Z,5.37
2019-03-25T03:30:28.375Z,5.60
2019-03-25T03:32:57.406Z,6.07
2019-03-25T03:35:26.539Z,6.30
2019-03-25T03:37:55.713Z,6.93
2019-03-25T03:40:24.785Z,6.70
2019-03-25T03:42:54.075Z,6.53
2019-03-25T03:45:23.100Z,5.93
2019-03-25T03:47:52.128Z,4.60
2019-03-25T03:50:22.722Z,4.40
2019-03-25T03:52:51.724Z,4.00
2019-03-25T03:55:20.788Z,3.80
2019-03-25T03:57:49.897Z,4.50
2019-03-25T04:00:20.491Z,3.43
2019-03-25T04:02:49.534Z,3.27
2019-03-25T04:05:18.591Z,3.80
2019-03-25T04:07:47.595Z,3.30
2019-03-25T04:10:16.646Z,2.97
2019-03-25T04:12:45.694Z,2.40
2019-03-25T04:15:17.265Z,2.80
2019-03-25T04:17:46.275Z,2.47
2019-03-25T04:20:15.324Z,3.00
2019-03-25T04:22:44.349Z,2.60
2019-03-25T04:25:13.401Z,2.20
2019-03-25T04:27:42.426Z,1.90
2019-03-25T04:30:11.721Z,1.70
2019-03-25T04:32:40.750Z,1.63
2019-03-25T04:35:10.037Z,1.60
2019-03-25T04:37:39.042Z,1.50
2019-03-25T04:40:08.767Z,1.63
2019-03-25T04:42:38.828Z,2.50
2019-03-25T04:45:08.157Z,1.87
2019-03-25T04:47:37.184Z,1.63
2019-03-25T04:50:06.382Z,2.03
2019-03-25T04:52:35.412Z,1.67
2019-03-25T04:55:05.419Z,1.57
2019-03-25T04:57:34.429Z,2.07
2019-03-25T05:00:03.644Z,2.37
2019-03-25T05:02:32.746Z,2.70
2019-03-25T05:05:01.764Z,2.30
2019-03-25T05:07:30.778Z,1.87
2019-03-25T05:09:59.824Z,2.23
2019-03-25T05:12:28.957Z,1.90
2019-03-25T05:14:58.021Z,1.90
2019-03-25T05:17:27.034Z,2.00
2019-03-25T05:19:56.062Z,2.43
2019-03-25T05:22:25.105Z,2.17
2019-03-25T05:24:54.178Z,2.30
2019-03-25T05:27:23.200Z,2.00
2019-03-25T05:29:52.225Z,2.00
2019-03-25T05:32:22.230Z,2.00
2019-03-25T05:34:51.266Z,2.40
2019-03-25T05:37:20.297Z,1.80
2019-03-25T05:39:49.395Z,2.00
2019-03-25T05:42:18.408Z,1.87
2019-03-25T05:44:47.486Z,1.90
2019-03-25T05:47:16.588Z,1.90
2019-03-25T05:49:45.645Z,1.87
2019-03-25T05:52:14.758Z,1.57
2019-03-25T05:54:43.844Z,1.90
2019-03-25T05:57:12.876Z,1.70
2019-03-25T05:59:41.895Z,2.00
2019-03-25T06:02:10.897Z,1.80
2019-03-25T06:04:39.912Z,2.10
2019-03-25T06:07:08.915Z,1.90
2019-03-25T06:09:37.917Z,2.33
2019-03-25T06:12:06.925Z,1.77
2019-03-25T06:14:35.965Z,1.80
2019-03-25T06:17:05.048Z,1.63
2019-03-25T06:19:33.982Z,1.70
2019-03-25T06:22:03.009Z,1.60
2019-03-25T06:24:32.990Z,1.90
2019-03-25T06:27:13.425Z,1.53
2019-03-25T06:29:32.684Z,1.50
2019-03-25T06:32:01.717Z,1.73
2019-03-25T06:34:31.609Z,1.80
2019-03-25T06:37:01.607Z,1.97
2019-03-25T06:39:30.601Z,2.13
2019-03-25T06:41:59.623Z,2.23
2019-03-25T06:44:28.618Z,1.90
2019-03-25T06:46:57.647Z,2.37
2019-03-25T06:49:26.623Z,2.10
2019-03-25T06:51:55.561Z,2.10
2019-03-25T06:54:24.493Z,1.90
2019-03-25T06:56:53.526Z,1.70
2019-03-25T06:59:22.549Z,2.37
2019-03-25T07:01:51.607Z,1.80
2019-03-25T07:04:20.605Z,2.07
2019-03-25T07:06:49.709Z,1.93
2019-03-25T07:09:18.846Z,2.20
2019-03-25T07:11:49.002Z,1.67
2019-03-25T07:14:18.078Z,1.77
2019-03-25T07:16:47.131Z,2.03
2019-03-25T07:19:16.155Z,2.10
2019-03-25T07:21:45.189Z,2.03
2019-03-25T07:24:14.200Z,1.90
2019-03-25T07:26:43.236Z,2.00
2019-03-25T07:29:13.311Z,2.00
2019-03-25T07:31:42.355Z,2.37
2019-03-25T07:34:11.379Z,2.60
2019-03-25T07:36:40.401Z,2.50
2019-03-25T07:39:09.421Z,2.90
2019-03-25T07:41:38.454Z,2.47
2019-03-25T07:44:08.796Z,2.60
2019-03-25T07:46:38.037Z,2.17
2019-03-25T07:49:07.032Z,2.43
2019-03-25T07:51:36.069Z,2.23
2019-03-25T07:54:05.160Z,2.30
2019-03-25T07:56:34.184Z,2.90
2019-03-25T07:59:03.209Z,2.70
2019-03-25T08:01:32.264Z,2.50
2019-03-25T08:04:01.291Z,2.50
2019-03-25T08:06:30.328Z,2.73
2019-03-25T08:09:03.819Z,3.00
2019-03-25T08:11:30.485Z,3.63
2019-03-25T08:13:59.521Z,2.07
2019-03-25T08:16:28.524Z,2.60
2019-03-25T08:18:57.523Z,2.70
2019-03-25T08:21:26.567Z,2.90
2019-03-25T08:23:56.787Z,2.10
2019-03-25T08:26:25.825Z,1.70
2019-03-25T08:28:54.882Z,1.80
2019-03-25T08:31:23.909Z,1.97
2019-03-25T08:33:52.940Z,1.83
2019-03-25T08:36:21.957Z,1.50
2019-03-25T08:38:51.025Z,1.87
2019-03-25T08:41:20.024Z,1.37
2019-03-25T08:43:50.389Z,1.50
2019-03-25T08:46:19.541Z,1.57
2019-03-25T08:48:48.650Z,1.57
2019-03-25T08:51:18.637Z,1.07
2019-03-25T08:53:48.739Z,1.63
2019-03-25T08:56:17.757Z,1.50
2019-03-25T08:58:46.798Z,1.50
2019-03-25T09:01:15.784Z,1.87
2019-03-25T09:03:44.802Z,1.70
2019-03-25T09:06:13.804Z,3.23
2019-03-25T09:08:42.824Z,2.20
2019-03-25T09:11:11.825Z,2.33
2019-03-25T09:13:40.841Z,2.30
2019-03-25T09:16:09.948Z,2.10
2019-03-25T09:18:38.981Z,1.63
2019-03-25T09:21:07.993Z,2.13
2019-03-25T09:23:37.038Z,2.03
2019-03-25T09:26:06.216Z,2.40
2019-03-25T09:28:35.262Z,2.53
2019-03-25T09:31:05.740Z,2.03
2019-03-25T09:33:34.788Z,2.40
2019-03-25T09:36:03.817Z,2.53
2019-03-25T09:38:32.917Z,3.00
2019-03-25T09:41:01.964Z,2.37
2019-03-25T09:43:30.974Z,1.90
2019-03-25T09:46:00.000Z,2.10
2019-03-25T09:48:29.056Z,1.47
2019-03-25T09:50:58.078Z,1.90
2019-03-25T09:53:27.134Z,1.83
2019-03-25T09:55:56.138Z,1.97
2019-03-25T09:58:35.658Z,2.00
2019-03-25T10:00:55.765Z,1.73
2019-03-25T10:03:25.780Z,1.77
2019-03-25T10:05:54.846Z,1.90
2019-03-25T10:08:23.885Z,2.03
2019-03-25T10:10:52.917Z,2.70
2019-03-25T10:13:22.925Z,2.13
2019-03-25T10:15:51.938Z,2.00
2019-03-25T10:18:20.965Z,1.83
2019-03-25T10:20:49.959Z,1.80
2019-03-25T10:23:18.985Z,2.03
2019-03-25T10:25:47.989Z,1.80
2019-03-25T10:28:17.009Z,1.60
2019-03-25T10:30:46.025Z,1.67
2019-03-25T10:33:15.026Z,2.10
2019-03-25T10:35:44.128Z,2.63
2019-03-25T10:38:19.597Z,2.20
2019-03-25T10:40:43.772Z,1.93
2019-03-25T10:43:12.783Z,2.07
2019-03-25T10:45:41.825Z,2.13
2019-03-25T10:48:10.912Z,2.27
2019-03-25T10:50:40.015Z,2.30
2019-03-25T10:53:09.170Z,1.70
2019-03-25T10:55:38.271Z,1.93
2019-03-25T10:58:07.344Z,2.10
2019-03-25T11:00:36.351Z,1.90
2019-03-25T11:03:05.434Z,1.67
2019-03-25T11:05:34.480Z,1.87
2019-03-25T11:08:03.502Z,1.30
2019-03-25T11:10:32.522Z,1.40
2019-03-25T11:13:01.571Z,1.83
2019-03-25T11:15:30.630Z,1.40
2019-03-25T11:21:28.489Z,1.33
2019-03-25T11:23:57.462Z,1.47
2019-03-25T11:26:26.453Z,1.50
2019-03-25T11:28:55.489Z,1.20
2019-03-25T11:31:24.465Z,1.23
2019-03-25T11:33:54.442Z,1.40
2019-03-25T11:36:23.510Z,1.20
2019-03-25T11:38:52.563Z,1.40
2019-03-25T11:41:21.597Z,1.30
2019-03-25T11:43:50.628Z,1.50
2019-03-25T11:46:19.657Z,1.53
2019-03-25T11:48:48.650Z,2.00
2019-03-25T11:51:17.687Z,2.70
2019-03-25T11:53:46.682Z,1.70
2019-03-25T11:56:15.778Z,1.43
2019-03-25T11:58:44.872Z,1.30
2019-03-25T12:01:13.848Z,1.17
2019-03-25T12:03:42.954Z,1.57
2019-03-25T12:06:11.958Z,1.37
2019-03-25T12:08:41.954Z,1.33
2019-03-25T12:11:10.961Z,1.70
2019-03-25T12:13:40.021Z,1.63
2019-03-25T12:16:09.010Z,1.53
2019-03-25T12:18:38.053Z,1.50
2019-03-25T12:21:07.099Z,1.67
2019-03-25T12:23:36.114Z,1.70
2019-03-25T12:26:05.109Z,2.00
2019-03-25T12:28:34.152Z,2.07
2019-03-25T12:31:03.147Z,2.13
2019-03-25T12:33:32.193Z,1.70
2019-03-25T12:36:01.200Z,1.90
2019-03-25T12:38:30.237Z,1.30
2019-03-25T12:40:59.245Z,1.33
2019-03-25T12:43:28.283Z,2.27
2019-03-25T12:45:57.271Z,1.60
2019-03-25T12:48:27.270Z,1.30
2019-03-25T12:50:56.296Z,1.20
2019-03-25T12:53:25.323Z,1.10
2019-03-25T12:56:19.105Z,1.10
2019-03-25T12:58:48.111Z,1.17
2019-03-25T13:01:17.129Z,1.00
2019-03-25T13:03:46.174Z,1.10
2019-03-25T13:06:15.175Z,0.97
2019-03-25T13:08:44.198Z,0.90
2019-03-25T13:11:13.199Z,1.20
2019-03-25T13:13:42.223Z,1.30
2019-03-25T13:16:11.221Z,1.30
2019-03-25T13:18:40.256Z,1.67
2019-03-25T13:21:09.292Z,1.50
2019-03-25T13:23:38.332Z,1.97
2019-03-25T13:26:07.355Z,1.93
2019-03-25T13:28:36.407Z,1.93
2019-03-25T13:31:05.409Z,1.70
2019-03-25T13:33:34.507Z,1.37
2019-03-25T13:36:03.594Z,1.83
2019-03-25T13:38:32.624Z,1.90
2019-03-25T13:41:01.667Z,1.93
2019-03-25T13:43:30.681Z,1.07
2019-03-25T13:46:05.536Z,0.90
2019-03-25T13:48:30.329Z,0.70
2019-03-25T13:50:59.393Z,0.80
2019-03-25T13:53:28.416Z,0.80
2019-03-25T13:55:58.505Z,0.80
2019-03-25T13:58:27.504Z,1.20
2019-03-25T14:00:56.550Z,0.60
2019-03-25T14:03:25.573Z,0.70
2019-03-25T14:05:54.617Z,0.67
2019-03-25T14:08:23.652Z,0.70
2019-03-25T14:10:52.689Z,0.70
2019-03-25T14:13:21.688Z,0.93
2019-03-25T14:15:50.730Z,1.10
2019-03-25T14:18:19.732Z,1.73
2019-03-25T14:20:48.775Z,1.30
2019-03-25T14:23:17.798Z,1.50
2019-03-25T14:25:46.829Z,1.60
2019-03-25T14:28:15.862Z,1.87
2019-03-25T14:30:46.055Z,1.50
2019-03-25T14:33:15.074Z,1.60
2019-03-25T14:35:44.115Z,1.33
2019-03-25T14:38:13.137Z,1.60
2019-03-25T14:40:43.216Z,1.30
2019-03-25T14:43:12.222Z,1.13
2019-03-25T14:45:41.258Z,1.00
2019-03-25T14:48:11.229Z,0.83
2019-03-25T14:50:40.230Z,1.00
2019-03-25T14:53:10.205Z,0.80
2019-03-25T14:55:39.246Z,0.70
2019-03-25T14:58:08.275Z,0.70
2019-03-25T15:00:37.305Z,1.37
2019-03-25T15:03:06.327Z,0.73
2019-03-25T15:05:35.357Z,0.80
2019-03-25T15:08:04.380Z,1.17
2019-03-25T15:10:33.424Z,0.70
2019-03-25T15:13:02.448Z,0.93
2019-03-25T15:15:31.542Z,1.03
2019-03-25T15:18:00.545Z,1.13
2019-03-25T15:20:29.532Z,1.00
2019-03-25T15:22:58.566Z,0.70
2019-03-25T15:25:27.546Z,0.90
2019-03-25T15:27:56.557Z,1.20
2019-03-25T15:30:35.145Z,1.50
2019-03-25T15:32:56.179Z,1.33
2019-03-25T15:35:25.184Z,1.43
2019-03-25T15:37:54.211Z,1.43
2019-03-25T15:40:23.240Z,2.10
2019-03-25T15:42:52.311Z,1.50
2019-03-25T15:45:21.302Z,0.80
2019-03-25T15:47:50.300Z,1.40
2019-03-25T15:50:19.459Z,1.20
2019-03-25T15:52:48.482Z,1.30
2019-03-25T15:55:17.516Z,1.40
2019-03-25T15:57:46.523Z,1.60
2019-03-25T16:00:18.086Z,4.23
2019-03-25T16:02:47.395Z,1.70
2019-03-25T16:05:16.656Z,1.33
2019-03-25T16:07:45.683Z,1.30
2019-03-25T16:10:17.570Z,1.70
2019-03-25T16:12:46.696Z,2.23
2019-03-25T16:15:17.239Z,1.60
2019-03-25T16:17:46.264Z,1.50
2019-03-25T16:20:15.352Z,1.60
2019-03-25T16:22:46.409Z,2.30
2019-03-25T16:25:16.563Z,2.00
2019-03-25T16:27:45.565Z,2.07
2019-03-25T16:30:33.942Z,2.40
2019-03-25T16:33:02.957Z,2.13
2019-03-25T16:35:31.996Z,2.17
2019-03-25T16:38:01.535Z,1.80
2019-03-25T16:40:30.819Z,2.20
2019-03-25T16:42:59.863Z,1.90
2019-03-25T16:45:29.006Z,1.70
2019-03-25T16:47:58.101Z,2.77
2019-03-25T16:50:27.155Z,10.57
2019-03-25T16:52:56.222Z,3.60
2019-03-25T16:55:25.170Z,11.53
2019-03-25T16:57:54.215Z,8.80
2019-03-25T17:00:27.567Z,6.53
2019-03-25T17:02:53.979Z,1.80
2019-03-25T17:05:23.069Z,2.60
2019-03-25T17:07:52.165Z,3.10
2019-03-25T17:10:21.141Z,2.07
2019-03-25T17:12:50.157Z,2.23
2019-03-25T17:15:19.177Z,2.20
2019-03-25T17:17:48.187Z,2.30
2019-03-25T17:20:17.203Z,2.20
2019-03-25T17:22:46.210Z,2.27
2019-03-25T17:25:15.405Z,2.43
2019-03-25T17:27:44.401Z,2.93
2019-03-25T17:30:15.101Z,2.67
2019-03-25T17:32:44.523Z,2.90
2019-03-25T17:35:14.803Z,2.47
2019-03-25T17:37:44.955Z,2.30
2019-03-25T17:40:14.175Z,2.87
2019-03-25T17:42:43.443Z,2.97
2019-03-25T17:45:12.737Z,2.97
2019-03-25T17:47:41.738Z,2.67
2019-03-25T17:50:10.919Z,2.43
2019-03-25T17:52:39.933Z,2.63
2019-03-25T17:55:10.091Z,2.63
2019-03-25T17:57:39.097Z,2.63
2019-03-25T18:00:09.385Z,2.97
2019-03-25T18:02:38.539Z,2.53
2019-03-25T18:05:07.843Z,2.70
2019-03-25T18:07:36.856Z,2.50
2019-03-25T18:10:06.855Z,2.80
2019-03-25T18:12:38.976Z,2.80
2019-03-25T18:15:08.051Z,2.87
2019-03-25T18:17:37.061Z,2.97
2019-03-25T18:20:17.741Z,2.53
2019-03-25T18:22:39.884Z,2.50
2019-03-25T18:25:08.211Z,2.63
2019-03-25T18:27:37.227Z,3.87
2019-03-25T18:30:07.443Z,3.33
2019-03-25T18:32:36.458Z,2.50
2019-03-25T18:35:05.832Z,3.80
2019-03-25T18:37:34.815Z,2.60
2019-03-25T18:40:04.651Z,2.57
2019-03-25T18:42:34.024Z,3.20
2019-03-25T18:45:27.799Z,6.40
2019-03-25T18:47:56.897Z,4.43
2019-03-25T18:50:26.112Z,4.57
2019-03-25T18:52:56.829Z,3.10
2019-03-25T18:55:26.013Z,4.00
2019-03-25T18:57:55.021Z,3.13
2019-03-25T19:00:25.592Z,3.47
2019-03-25T19:02:55.038Z,3.97
2019-03-25T19:05:24.181Z,9.27
2019-03-25T19:07:53.160Z,10.17
2019-03-25T19:10:24.954Z,6.60
2019-03-25T19:12:54.082Z,7.20
2019-03-25T19:15:23.640Z,2.73
2019-03-25T19:17:52.812Z,3.13
2019-03-25T19:20:23.612Z,4.10
2019-03-25T19:22:54.585Z,3.30
2019-03-25T19:25:27.048Z,2.57
2019-03-25T19:27:57.358Z,3.30
2019-03-25T19:30:27.280Z,3.40
2019-03-25T19:32:57.690Z,2.97
2019-03-25T19:35:29.995Z,2.80
2019-03-25T19:38:01.231Z,3.47
2019-03-25T19:40:32.275Z,4.27
2019-03-25T19:43:02.541Z,3.20
2019-03-25T19:45:32.635Z,3.07
2019-03-25T19:48:05.626Z,2.63
2019-03-25T19:50:35.863Z,2.90
2019-03-25T19:53:05.985Z,2.80
2019-03-25T19:55:37.516Z,2.63
2019-03-25T19:58:07.568Z,2.90
2019-03-25T20:00:39.844Z,3.27
2019-03-25T20:03:09.541Z,2.93
2019-03-25T20:05:40.122Z,2.83
2019-03-25T20:08:10.434Z,3.47
2019-03-25T20:10:40.531Z,3.33
2019-03-25T20:13:10.536Z,3.70
2019-03-25T20:15:46.586Z,3.43
2019-03-25T20:18:13.045Z,6.50
2019-03-25T20:20:42.740Z,4.00
2019-03-25T20:23:12.075Z,7.13
2019-03-25T20:25:41.137Z,4.37
2019-03-25T20:28:11.400Z,4.33
2019-03-25T20:30:41.142Z,3.80
2019-03-25T20:33:10.286Z,3.37
2019-03-25T20:35:39.267Z,4.70
2019-03-25T20:38:08.281Z,3.00
2019-03-25T20:40:37.697Z,6.50
2019-03-25T20:43:07.640Z,3.80
2019-03-25T20:45:36.708Z,3.67
2019-03-25T20:48:05.716Z,3.80
2019-03-25T20:50:34.796Z,3.37
2019-03-25T20:53:04.016Z,3.77
2019-03-25T20:55:33.036Z,3.63
2019-03-25T20:58:03.722Z,2.90
2019-03-25T21:00:35.257Z,3.10
2019-03-25T21:03:05.252Z,2.83
2019-03-25T21:05:34.670Z,4.33
2019-03-25T21:08:03.765Z,3.50
2019-03-25T21:10:32.835Z,3.80
2019-03-25T21:13:01.876Z,3.57
2019-03-25T21:15:31.020Z,3.93
2019-03-25T21:18:00.099Z,4.03
2019-03-25T21:20:29.278Z,3.87
2019-03-25T21:22:58.265Z,4.23
2019-03-25T21:25:27.328Z,4.23
2019-03-25T21:27:56.400Z,3.87
2019-03-25T21:30:28.255Z,4.33
2019-03-25T21:32:58.550Z,4.20
2019-03-25T21:35:26.884Z,4.10
2019-03-25T21:37:56.043Z,3.93
2019-03-25T21:40:25.016Z,4.57
2019-03-25T21:42:54.026Z,5.00
2019-03-25T21:45:23.048Z,3.93
2019-03-25T21:47:52.220Z,5.17
2019-03-25T21:50:21.476Z,4.70
2019-03-25T21:52:50.613Z,4.40
2019-03-25T21:55:19.666Z,4.20
2019-03-25T21:57:48.885Z,4.73
2019-03-25T22:00:18.335Z,4.13
2019-03-25T22:02:47.320Z,4.77
2019-03-25T22:05:16.409Z,4.40
2019-03-25T22:07:45.501Z,4.90
2019-03-25T22:10:14.564Z,4.73
2019-03-25T22:12:43.592Z,5.07
2019-03-25T22:15:12.678Z,4.67
2019-03-25T22:17:41.775Z,4.23
2019-03-25T22:20:12.171Z,4.40
2019-03-25T22:22:41.335Z,5.37
2019-03-25T22:25:10.494Z,6.53
2019-03-25T22:28:05.688Z,5.13
2019-03-25T22:30:34.719Z,5.57
2019-03-25T22:33:03.816Z,4.77
2019-03-25T22:35:32.825Z,5.13
2019-03-25T22:38:01.853Z,5.13
2019-03-25T22:40:30.860Z,5.97
2019-03-25T22:42:59.877Z,5.00
2019-03-25T22:45:29.162Z,5.13
2019-03-25T22:47:58.288Z,5.70
2019-03-25T22:50:28.157Z,5.10
2019-03-25T22:59:31.338Z,4.90
2019-03-25T23:02:00.474Z,5.37
2019-03-25T23:04:29.525Z,4.60
2019-03-25T23:06:58.556Z,4.90
2019-03-25T23:12:52.861Z,4.90
2019-03-25T23:15:21.918Z,5.00
2019-03-25T23:17:51.040Z,4.57
2019-03-25T23:20:20.098Z,4.87
2019-03-25T23:22:49.127Z,4.83
2019-03-25T23:25:18.151Z,4.80
2019-03-25T23:27:47.245Z,5.70
2019-03-25T23:30:16.414Z,6.43
2019-03-25T23:32:45.507Z,4.43
2019-03-25T23:35:14.556Z,4.77
2019-03-25T23:37:43.580Z,3.93
2019-03-25T23:40:12.664Z,4.67
2019-03-25T23:42:41.749Z,4.07
2019-03-25T23:45:10.781Z,4.63
2019-03-25T23:47:39.818Z,4.60
2019-03-25T23:50:08.994Z,4.17
2019-03-25T23:52:38.037Z,4.30
2019-03-25T23:55:07.121Z,4.43
2019-03-25T23:57:36.125Z,4.00
